createdAt,value
2023-01-26T00:00:21.479Z,-0.49
2023-01-26T00:02:51.109Z,-0.29
2023-01-26T00:05:20.679Z,-0.54
2023-01-26T00:07:50.191Z,-0.60
2023-01-26T00:10:19.916Z,-0.75
2023-01-26T00:12:49.431Z,-0.72
2023-01-26T00:15:21.596Z,-1.51
2023-01-26T00:17:51.566Z,-1.35
2023-01-26T00:20:21.360Z,-0.96
2023-01-26T00:22:51.215Z,-1.03
2023-01-26T00:25:20.732Z,-0.80
2023-01-26T00:27:50.408Z,-0.89
2023-01-26T00:30:22.837Z,-0.87
2023-01-26T00:32:52.449Z,-0.88
2023-01-26T00:35:22.046Z,-1.03
2023-01-26T00:37:51.604Z,-1.15
2023-01-26T00:40:21.385Z,-0.89
2023-01-26T00:42:50.905Z,-0.84
2023-01-26T00:45:23.810Z,-0.77
2023-01-26T00:47:53.347Z,-0.78
2023-01-26T00:50:23.592Z,-0.88
2023-01-26T00:52:53.921Z,-0.80
2023-01-26T00:55:23.576Z,-0.58
2023-01-26T00:57:53.500Z,-0.32
2023-01-26T01:00:25.609Z,-1.07
2023-01-26T01:02:56.378Z,-0.63
2023-01-26T01:05:26.271Z,-0.47
2023-01-26T01:07:56.290Z,-0.52
2023-01-26T01:10:27.530Z,-0.42
2023-01-26T01:12:57.765Z,-0.80
2023-01-26T01:15:29.875Z,-0.45
2023-01-26T01:17:59.406Z,-0.81
2023-01-26T01:20:29.916Z,-0.83
2023-01-26T01:22:59.456Z,-1.39
2023-01-26T01:25:30.395Z,-1.35
2023-01-26T01:27:59.908Z,-1.33
2023-01-26T01:30:31.986Z,-1.23
2023-01-26T01:33:02.004Z,-1.82
2023-01-26T01:35:31.764Z,-1.15
2023-01-26T01:38:01.564Z,-1.63
2023-01-26T01:40:31.285Z,-1.86
2023-01-26T01:43:01.171Z,-1.61
2023-01-26T01:45:42.526Z,-1.48
2023-01-26T01:48:21.379Z,-1.29
2023-01-26T01:50:52.604Z,-1.20
2023-01-26T01:53:27.361Z,-1.45
2023-01-26T01:55:59.834Z,-0.81
2023-01-26T01:58:31.088Z,-1.28
2023-01-26T02:01:03.768Z,-1.40
2023-01-26T02:03:35.479Z,-0.91
2023-01-26T02:06:10.090Z,-0.72
2023-01-26T02:08:42.124Z,-0.67
2023-01-26T02:11:17.510Z,-0.53
2023-01-26T02:13:50.288Z,-0.14
2023-01-26T02:16:22.923Z,-0.31
2023-01-26T02:18:52.598Z,0.33
2023-01-26T02:21:25.811Z,-0.42
2023-01-26T02:24:12.158Z,-0.91
2023-01-26T02:26:44.814Z,-0.21
2023-01-26T02:29:15.395Z,-0.40
2023-01-26T02:31:47.015Z,-0.19
2023-01-26T02:34:16.645Z,-0.50
2023-01-26T02:36:46.202Z,-0.21
2023-01-26T02:39:25.212Z,0.00
2023-01-26T02:42:10.068Z,-0.63
2023-01-26T02:44:40.333Z,-0.69
2023-01-26T02:47:15.101Z,-0.75
2023-01-26T02:49:47.923Z,-0.75
2023-01-26T02:52:20.701Z,-0.73
2023-01-26T02:55:09.625Z,-0.75
2023-01-26T02:57:42.036Z,-1.07
2023-01-26T03:00:14.179Z,-1.08
2023-01-26T03:02:44.472Z,-0.93
2023-01-26T03:05:13.993Z,-0.87
2023-01-26T03:07:43.987Z,-0.72
2023-01-26T03:10:16.176Z,-0.93
2023-01-26T03:12:48.883Z,-1.13
2023-01-26T03:15:33.160Z,-0.97
2023-01-26T03:18:19.061Z,-0.50
2023-01-26T03:21:01.167Z,-0.92
2023-01-26T03:23:43.365Z,-1.29
2023-01-26T03:26:29.575Z,-1.04
2023-01-26T03:29:02.079Z,-1.21
2023-01-26T03:31:31.679Z,-1.19
2023-01-26T03:34:01.286Z,-0.87
2023-01-26T03:36:32.144Z,-0.92
2023-01-26T03:39:02.328Z,-1.39
2023-01-26T03:41:44.557Z,-0.97
2023-01-26T03:44:29.332Z,-1.25
2023-01-26T03:47:12.440Z,-1.27
2023-01-26T03:49:55.260Z,-1.22
2023-01-26T03:52:37.344Z,-0.85
2023-01-26T03:55:20.551Z,-1.16
2023-01-26T03:57:50.990Z,-1.19
2023-01-26T04:00:24.225Z,-1.15
2023-01-26T04:03:06.961Z,-0.83
2023-01-26T04:05:50.059Z,-1.08
2023-01-26T04:08:29.323Z,-1.07
2023-01-26T04:11:05.826Z,-0.98
2023-01-26T04:13:47.908Z,-1.31
2023-01-26T04:16:39.832Z,-1.39
2023-01-26T04:19:22.498Z,-1.21
2023-01-26T04:21:52.107Z,-1.20
2023-01-26T04:24:24.679Z,-0.90
2023-01-26T04:26:58.122Z,-0.97
2023-01-26T04:29:42.181Z,-0.76
2023-01-26T04:32:14.375Z,-0.98
2023-01-26T04:34:44.345Z,-1.15
2023-01-26T04:37:22.219Z,-1.11
2023-01-26T04:39:51.790Z,-0.98
2023-01-26T04:42:24.434Z,-0.64
2023-01-26T04:44:54.611Z,-0.82
2023-01-26T04:47:29.272Z,-0.79
2023-01-26T04:49:59.064Z,-0.58
2023-01-26T04:52:29.625Z,-0.88
2023-01-26T04:54:59.531Z,-1.16
2023-01-26T04:57:29.072Z,-1.30
2023-01-26T04:59:58.649Z,-1.07
2023-01-26T05:02:30.793Z,-0.61
2023-01-26T05:05:00.345Z,-1.07
2023-01-26T05:07:30.097Z,-1.11
2023-01-26T05:10:00.137Z,-1.39
2023-01-26T05:12:45.250Z,-0.75
2023-01-26T05:15:35.693Z,-0.99
2023-01-26T05:18:16.513Z,-0.88
2023-01-26T05:21:05.450Z,-1.04
2023-01-26T05:23:41.980Z,-0.86
2023-01-26T05:26:14.173Z,-1.65
2023-01-26T05:28:56.241Z,-1.73
2023-01-26T05:31:25.918Z,-1.54
2023-01-26T05:33:58.832Z,-1.32
2023-01-26T05:36:28.391Z,-1.18
2023-01-26T05:38:58.084Z,-1.65
2023-01-26T05:41:29.326Z,-1.33
2023-01-26T05:44:11.377Z,-1.49
2023-01-26T05:46:45.283Z,-1.62
2023-01-26T05:49:17.427Z,-1.61
2023-01-26T05:51:47.047Z,-1.54
2023-01-26T05:54:17.611Z,-1.46
2023-01-26T05:56:47.173Z,-1.52
2023-01-26T05:59:16.723Z,-1.29
2023-01-26T06:01:46.388Z,-1.39
2023-01-26T06:04:18.693Z,-1.34
2023-01-26T06:06:55.592Z,-1.53
2023-01-26T06:09:28.140Z,-1.96
2023-01-26T06:12:20.414Z,-1.57
2023-01-26T06:14:58.860Z,-1.41
2023-01-26T06:17:37.362Z,-1.55
2023-01-26T06:20:14.825Z,-1.37
2023-01-26T06:22:49.243Z,-1.20
2023-01-26T06:25:19.115Z,-1.43
2023-01-26T06:27:49.305Z,-1.07
2023-01-26T06:30:27.402Z,-0.98
2023-01-26T06:33:01.348Z,-1.35
2023-01-26T06:35:36.045Z,-1.38
2023-01-26T06:38:07.328Z,-1.73
2023-01-26T06:40:37.501Z,-1.63
2023-01-26T06:43:07.087Z,-1.28
2023-01-26T06:45:36.843Z,-1.61
2023-01-26T06:48:06.698Z,-1.47
2023-01-26T06:50:39.119Z,-1.51
2023-01-26T06:53:28.817Z,-1.63
2023-01-26T06:56:18.274Z,-1.85
2023-01-26T06:59:06.989Z,-1.51
2023-01-26T07:01:57.149Z,-1.02
2023-01-26T07:04:28.658Z,-1.57
2023-01-26T07:07:00.851Z,-1.69
2023-01-26T07:09:30.763Z,-1.54
2023-01-26T07:12:00.313Z,-1.38
2023-01-26T07:14:30.048Z,-1.42
2023-01-26T07:16:59.940Z,-1.38
2023-01-26T07:19:30.453Z,-1.28
2023-01-26T07:22:02.635Z,-1.31
2023-01-26T07:24:32.914Z,-0.99
2023-01-26T07:27:02.568Z,-0.95
2023-01-26T07:29:32.125Z,-1.07
2023-01-26T07:32:01.776Z,-1.29
2023-01-26T07:34:31.377Z,-1.37
2023-01-26T07:37:03.528Z,-1.41
2023-01-26T07:39:33.096Z,-1.21
2023-01-26T07:42:02.629Z,-1.08
2023-01-26T07:45:04.235Z,-1.12
2023-01-26T07:47:33.810Z,-0.62
2023-01-26T07:50:03.319Z,-0.89
2023-01-26T07:52:35.457Z,-0.84
2023-01-26T07:55:05.057Z,-0.45
2023-01-26T07:57:34.883Z,-1.09
2023-01-26T08:00:04.708Z,-1.19
2023-01-26T08:02:41.419Z,-1.15
2023-01-26T08:05:12.167Z,-0.88
2023-01-26T08:07:44.298Z,-0.33
2023-01-26T08:10:15.016Z,-0.62
2023-01-26T08:12:44.677Z,-0.58
2023-01-26T08:15:14.805Z,-0.49
2023-01-26T08:17:44.359Z,-0.51
2023-01-26T08:20:14.843Z,-0.44
2023-01-26T08:22:47.011Z,-0.28
2023-01-26T08:25:16.805Z,-0.46
2023-01-26T08:27:46.339Z,-0.49
2023-01-26T08:30:16.578Z,-0.60
2023-01-26T08:32:46.095Z,-0.51
2023-01-26T08:35:15.698Z,-0.30
2023-01-26T08:37:47.787Z,-0.42
2023-01-26T08:40:17.642Z,-0.30
2023-01-26T08:42:47.216Z,-0.38
2023-01-26T08:45:16.915Z,-0.85
2023-01-26T08:47:46.576Z,-0.57
2023-01-26T08:50:16.172Z,-0.57
2023-01-26T08:52:48.452Z,-0.55
2023-01-26T08:55:18.500Z,-0.33
2023-01-26T08:57:48.222Z,-0.30
2023-01-26T09:00:18.602Z,-0.45
2023-01-26T09:02:49.362Z,-0.01
2023-01-26T09:05:19.031Z,-0.16
2023-01-26T09:07:51.134Z,-0.43
2023-01-26T09:10:20.689Z,-0.31
2023-01-26T09:12:50.323Z,-0.14
2023-01-26T09:15:20.195Z,-0.59
2023-01-26T09:17:51.301Z,-0.18
2023-01-26T09:20:21.546Z,-0.03
2023-01-26T09:22:54.708Z,-0.31
2023-01-26T09:25:24.304Z,-0.62
2023-01-26T09:27:53.941Z,-0.68
2023-01-26T09:30:24.860Z,-0.31
2023-01-26T09:32:54.618Z,-0.41
2023-01-26T09:35:24.196Z,-0.44
2023-01-26T09:37:56.357Z,-0.22
2023-01-26T09:40:38.705Z,-0.21
2023-01-26T09:43:23.829Z,0.04
2023-01-26T09:46:03.962Z,-0.54
2023-01-26T09:48:41.167Z,-0.23
2023-01-26T09:51:16.302Z,-0.41
2023-01-26T09:53:57.167Z,-0.03
2023-01-26T09:56:31.011Z,0.02
2023-01-26T09:59:06.658Z,-0.01
2023-01-26T10:01:39.434Z,-0.13
2023-01-26T10:04:17.542Z,-0.17
2023-01-26T10:06:47.341Z,-0.36
2023-01-26T10:09:32.737Z,-0.11
2023-01-26T10:12:05.718Z,-0.75
2023-01-26T10:14:40.744Z,-0.59
2023-01-26T10:17:17.902Z,-0.27
2023-01-26T10:19:51.972Z,-0.43
2023-01-26T10:22:30.890Z,-0.55
2023-01-26T10:25:03.838Z,-0.32
2023-01-26T10:27:33.361Z,-0.43
2023-01-26T10:30:02.898Z,-0.32
2023-01-26T10:32:35.544Z,-0.16
2023-01-26T10:35:05.267Z,0.03
2023-01-26T10:37:37.583Z,-0.33
2023-01-26T10:40:12.051Z,0.12
2023-01-26T10:42:42.758Z,0.13
2023-01-26T10:45:28.171Z,-0.35
2023-01-26T10:48:06.894Z,0.41
2023-01-26T10:50:36.585Z,0.42
2023-01-26T10:53:08.291Z,0.85
2023-01-26T10:55:40.486Z,0.81
2023-01-26T10:58:44.855Z,0.41
2023-01-26T11:01:18.802Z,0.77
2023-01-26T11:04:04.654Z,0.88
2023-01-26T11:06:35.580Z,1.00
2023-01-26T11:09:13.516Z,0.63
2023-01-26T11:11:58.529Z,0.40
2023-01-26T11:14:28.101Z,0.38
2023-01-26T11:17:04.055Z,0.70
2023-01-26T11:19:55.810Z,1.00
2023-01-26T11:22:34.364Z,1.10
2023-01-26T11:25:16.485Z,1.06
2023-01-26T11:28:02.001Z,1.30
2023-01-26T11:30:48.474Z,1.36
2023-01-26T11:33:27.876Z,1.13
2023-01-26T11:36:04.138Z,1.52
2023-01-26T11:38:40.884Z,1.29
2023-01-26T11:41:25.321Z,1.16
2023-01-26T11:44:19.151Z,0.89
2023-01-26T11:47:02.569Z,0.78
2023-01-26T11:49:52.950Z,0.98
2023-01-26T11:52:32.695Z,0.71
2023-01-26T11:55:19.607Z,0.93
2023-01-26T11:58:05.372Z,1.11
2023-01-26T12:00:43.435Z,1.64
2023-01-26T12:03:21.287Z,1.09
2023-01-26T12:05:54.916Z,1.22
2023-01-26T12:08:29.409Z,0.82
2023-01-26T12:11:22.667Z,0.88
2023-01-26T12:14:11.060Z,1.48
2023-01-26T12:17:16.816Z,1.48
2023-01-26T12:19:55.504Z,1.76
2023-01-26T12:22:34.074Z,1.09
2023-01-26T12:25:19.369Z,0.85
2023-01-26T12:27:55.908Z,0.87
2023-01-26T12:30:33.628Z,0.95
2023-01-26T12:33:06.317Z,0.89
2023-01-26T12:35:48.665Z,0.79
2023-01-26T12:38:24.762Z,0.84
2023-01-26T12:41:08.551Z,0.80
2023-01-26T12:43:54.678Z,1.06
2023-01-26T12:46:25.244Z,0.85
2023-01-26T12:49:00.520Z,1.16
2023-01-26T12:51:35.275Z,0.64
2023-01-26T12:54:09.991Z,0.45
2023-01-26T12:56:44.484Z,0.81
2023-01-26T12:59:47.155Z,0.86
2023-01-26T13:02:28.951Z,0.72
2023-01-26T13:05:03.482Z,0.72
2023-01-26T13:07:36.878Z,0.69
2023-01-26T13:10:27.187Z,0.89
2023-01-26T13:12:59.582Z,0.68
2023-01-26T13:15:31.812Z,0.44
2023-01-26T13:18:03.716Z,0.65
2023-01-26T13:20:48.570Z,0.72
2023-01-26T13:23:40.946Z,0.84
2023-01-26T13:26:47.513Z,0.64
2023-01-26T13:29:34.760Z,0.81
2023-01-26T13:32:34.539Z,1.03
2023-01-26T13:35:05.819Z,0.81
2023-01-26T13:37:49.074Z,0.98
2023-01-26T13:40:23.934Z,1.26
2023-01-26T13:43:01.110Z,0.88
2023-01-26T13:45:36.577Z,0.99
2023-01-26T13:48:13.713Z,0.44
2023-01-26T13:50:43.704Z,0.42
2023-01-26T13:53:42.308Z,0.97
2023-01-26T13:56:25.017Z,1.13
2023-01-26T13:58:54.949Z,0.79
2023-01-26T14:01:24.576Z,0.71
2023-01-26T14:04:05.456Z,0.75
2023-01-26T14:06:36.986Z,0.79
2023-01-26T14:09:15.166Z,0.59
2023-01-26T14:11:45.904Z,0.78
2023-01-26T14:14:26.178Z,0.31
2023-01-26T14:17:00.813Z,0.92
2023-01-26T14:19:32.231Z,0.72
2023-01-26T14:22:05.290Z,0.97
2023-01-26T14:24:39.803Z,1.16
2023-01-26T14:27:29.896Z,0.74
2023-01-26T14:29:59.918Z,0.72
2023-01-26T14:32:30.344Z,0.82
2023-01-26T14:35:01.951Z,0.76
2023-01-26T14:37:31.620Z,0.99
2023-01-26T14:40:23.149Z,1.10
2023-01-26T14:42:55.217Z,1.20
2023-01-26T14:45:31.249Z,1.20
2023-01-26T14:48:04.775Z,1.23
2023-01-26T14:50:34.971Z,1.22
2023-01-26T14:53:06.971Z,1.14
2023-01-26T14:55:39.287Z,1.32
2023-01-26T14:58:18.409Z,0.97
2023-01-26T15:00:51.825Z,0.95
2023-01-26T15:03:28.713Z,1.15
2023-01-26T15:06:20.433Z,0.77
2023-01-26T15:09:01.941Z,0.82
2023-01-26T15:11:50.969Z,0.71
2023-01-26T15:14:38.384Z,0.73
2023-01-26T15:17:08.749Z,0.60
2023-01-26T15:19:43.671Z,0.46
2023-01-26T15:22:23.048Z,0.68
2023-01-26T15:25:08.667Z,0.65
2023-01-26T15:27:40.824Z,0.58
2023-01-26T15:30:19.532Z,0.58
2023-01-26T15:32:49.392Z,0.60
2023-01-26T15:35:27.995Z,0.97
2023-01-26T15:38:05.453Z,0.72
2023-01-26T15:40:35.413Z,0.86
2023-01-26T15:43:14.359Z,0.65
2023-01-26T15:45:49.833Z,0.55
2023-01-26T15:48:19.398Z,0.56
2023-01-26T15:50:49.893Z,0.23
2023-01-26T15:53:22.612Z,0.29
2023-01-26T15:55:56.319Z,0.52
2023-01-26T15:58:28.864Z,0.59
2023-01-26T16:00:58.860Z,0.63
2023-01-26T16:03:28.953Z,0.81
2023-01-26T16:05:58.509Z,1.18
2023-01-26T16:08:28.037Z,0.97
2023-01-26T16:10:59.695Z,0.86
2023-01-26T16:13:34.033Z,0.99
2023-01-26T16:16:03.785Z,0.74
2023-01-26T16:18:33.452Z,0.62
2023-01-26T16:21:03.085Z,0.74
2023-01-26T16:23:32.617Z,0.66
2023-01-26T16:26:02.200Z,0.48
2023-01-26T16:28:34.523Z,0.60
2023-01-26T16:31:04.462Z,0.50
2023-01-26T16:33:33.974Z,0.33
2023-01-26T16:36:03.500Z,0.77
2023-01-26T16:38:33.035Z,0.91
2023-01-26T16:41:02.594Z,0.89
2023-01-26T16:43:34.700Z,1.04
2023-01-26T16:46:04.395Z,0.98
2023-01-26T16:48:35.085Z,0.53
2023-01-26T16:51:17.021Z,0.75
2023-01-26T16:53:47.017Z,0.81
2023-01-26T16:56:18.284Z,0.63
2023-01-26T16:58:50.672Z,0.89
2023-01-26T17:01:23.109Z,0.60
2023-01-26T17:03:53.354Z,0.71
2023-01-26T17:06:23.289Z,0.82
2023-01-26T17:08:52.913Z,0.59
2023-01-26T17:11:27.426Z,0.62
2023-01-26T17:13:59.982Z,0.74
2023-01-26T17:16:33.012Z,1.01
2023-01-26T17:19:02.960Z,0.84
2023-01-26T17:21:32.720Z,0.63
2023-01-26T17:24:02.266Z,0.59
2023-01-26T17:26:31.804Z,0.85
2023-01-26T17:29:04.006Z,0.88
2023-01-26T17:31:34.369Z,0.82
2023-01-26T17:34:04.216Z,0.56
2023-01-26T17:36:33.790Z,0.64
2023-01-26T17:39:03.356Z,0.76
2023-01-26T17:41:32.910Z,0.51
2023-01-26T17:44:05.014Z,0.47
2023-01-26T17:46:34.594Z,0.58
2023-01-26T17:49:04.094Z,0.62
2023-01-26T17:51:33.635Z,0.84
2023-01-26T17:54:03.162Z,0.73
2023-01-26T17:56:33.099Z,0.64
2023-01-26T17:59:05.486Z,0.44
2023-01-26T18:01:35.065Z,0.71
2023-01-26T18:04:05.085Z,0.73
2023-01-26T18:06:34.846Z,0.67
2023-01-26T18:09:04.568Z,0.64
2023-01-26T18:11:34.398Z,0.69
2023-01-26T18:14:07.431Z,0.61
2023-01-26T18:16:37.101Z,0.93
2023-01-26T18:19:06.732Z,0.87
2023-01-26T18:21:37.041Z,0.81
2023-01-26T18:24:08.849Z,0.90
2023-01-26T18:26:40.357Z,0.64
2023-01-26T18:29:14.845Z,0.65
2023-01-26T18:31:44.399Z,0.88
2023-01-26T18:34:14.782Z,0.76
2023-01-26T18:36:44.354Z,0.95
2023-01-26T18:39:16.873Z,0.83
2023-01-26T18:41:46.426Z,0.86
2023-01-26T18:44:18.586Z,0.73
2023-01-26T18:46:48.239Z,0.91
2023-01-26T18:49:17.767Z,0.94
2023-01-26T18:51:48.244Z,0.83
2023-01-26T18:54:18.829Z,1.07
2023-01-26T18:56:48.946Z,0.76
2023-01-26T18:59:21.616Z,0.93
2023-01-26T19:01:51.368Z,0.93
2023-01-26T19:04:21.036Z,1.14
2023-01-26T19:06:50.606Z,1.04
2023-01-26T19:09:21.354Z,1.19
2023-01-26T19:11:51.421Z,1.21
2023-01-26T19:14:23.653Z,1.24
2023-01-26T19:16:53.975Z,1.31
2023-01-26T19:19:23.732Z,1.15
2023-01-26T19:21:53.372Z,0.72
2023-01-26T19:24:23.065Z,0.83
2023-01-26T19:26:52.648Z,0.62
2023-01-26T19:29:24.942Z,0.90
2023-01-26T19:31:54.613Z,0.85
2023-01-26T19:34:24.469Z,0.83
2023-01-26T19:36:54.023Z,0.81
2023-01-26T19:39:23.592Z,0.84
2023-01-26T19:41:53.235Z,0.99
2023-01-26T19:44:25.371Z,1.13
2023-01-26T19:46:55.888Z,0.82
2023-01-26T19:49:25.868Z,0.74
2023-01-26T19:51:56.683Z,0.64
2023-01-26T19:54:26.331Z,0.70
2023-01-26T19:56:55.934Z,0.74
2023-01-26T19:59:28.533Z,0.79
2023-01-26T20:01:58.830Z,0.95
2023-01-26T20:04:28.409Z,1.15
2023-01-26T20:06:57.983Z,1.15
2023-01-26T20:09:27.504Z,1.03
2023-01-26T20:11:57.069Z,1.22
2023-01-26T20:14:29.564Z,1.04
2023-01-26T20:16:59.114Z,0.82
2023-01-26T20:19:28.849Z,0.91
2023-01-26T20:21:58.790Z,0.95
2023-01-26T20:24:28.609Z,0.83
2023-01-26T20:26:58.268Z,0.99
2023-01-26T20:29:30.513Z,1.01
2023-01-26T20:32:00.392Z,0.95
2023-01-26T20:34:30.058Z,1.26
2023-01-26T20:37:00.322Z,1.01
2023-01-26T20:39:30.755Z,1.33
2023-01-26T20:42:00.296Z,1.14
2023-01-26T20:44:32.409Z,1.51
2023-01-26T20:47:01.943Z,1.46
2023-01-26T20:49:31.598Z,1.47
2023-01-26T20:52:01.153Z,1.02
2023-01-26T20:54:30.695Z,1.16
2023-01-26T20:57:00.331Z,1.28
2023-01-26T20:59:32.629Z,1.02
2023-01-26T21:02:02.323Z,1.05
2023-01-26T21:04:32.266Z,1.24
2023-01-26T21:07:01.880Z,0.99
2023-01-26T21:09:31.438Z,0.79
2023-01-26T21:12:01.078Z,1.11
2023-01-26T21:14:33.212Z,0.96
2023-01-26T21:17:02.810Z,0.94
2023-01-26T21:19:32.590Z,1.11
2023-01-26T21:22:02.169Z,1.05
2023-01-26T21:24:31.949Z,1.13
2023-01-26T21:27:02.760Z,1.30
2023-01-26T21:29:34.918Z,1.25
2023-01-26T21:32:04.472Z,1.44
2023-01-26T21:34:34.069Z,1.09
2023-01-26T21:37:03.748Z,1.31
2023-01-26T21:39:33.527Z,1.23
2023-01-26T21:42:03.053Z,1.02
2023-01-26T21:44:55.984Z,1.14
2023-01-26T21:47:25.701Z,1.42
2023-01-26T21:49:56.238Z,1.30
2023-01-26T21:52:38.329Z,0.94
2023-01-26T21:55:08.604Z,1.05
2023-01-26T21:57:50.715Z,1.38
2023-01-26T22:00:23.758Z,1.35
2023-01-26T22:02:54.539Z,1.18
2023-01-26T22:05:24.114Z,1.13
2023-01-26T22:07:53.714Z,1.16
2023-01-26T22:10:23.298Z,1.27
2023-01-26T22:12:52.811Z,1.28
2023-01-26T22:15:24.978Z,1.23
2023-01-26T22:17:54.495Z,1.30
2023-01-26T22:20:24.075Z,1.24
2023-01-26T22:22:53.589Z,1.12
2023-01-26T22:25:23.203Z,1.38
2023-01-26T22:27:53.041Z,1.22
2023-01-26T22:30:25.222Z,1.34
2023-01-26T22:32:54.884Z,1.47
2023-01-26T22:35:24.531Z,1.34
2023-01-26T22:37:56.249Z,1.35
2023-01-26T22:40:25.973Z,1.54
2023-01-26T22:42:56.148Z,1.71
2023-01-26T22:45:28.398Z,1.76
2023-01-26T22:47:57.948Z,1.27
2023-01-26T22:50:28.369Z,1.26
2023-01-26T22:52:57.901Z,1.62
2023-01-26T22:55:27.444Z,1.51
2023-01-26T22:57:57.383Z,1.64
2023-01-26T23:00:30.377Z,1.72
2023-01-26T23:03:00.957Z,2.08
2023-01-26T23:05:30.645Z,1.83
2023-01-26T23:08:00.265Z,1.59
2023-01-26T23:10:30.833Z,1.85
2023-01-26T23:13:00.522Z,1.82
2023-01-26T23:15:32.673Z,1.54
2023-01-26T23:18:02.207Z,1.74
2023-01-26T23:20:31.730Z,1.41
2023-01-26T23:23:01.275Z,1.52
2023-01-26T23:25:43.343Z,1.49
2023-01-26T23:28:12.882Z,1.93
2023-01-26T23:30:45.306Z,1.75
2023-01-26T23:33:15.462Z,1.61
2023-01-26T23:35:45.599Z,1.62
2023-01-26T23:38:15.828Z,1.27
2023-01-26T23:40:46.375Z,1.57
2023-01-26T23:43:17.350Z,1.84
2023-01-26T23:45:51.869Z,1.78
2023-01-26T23:48:22.376Z,1.54
2023-01-26T23:50:57.157Z,1.52
2023-01-26T23:53:26.778Z,1.51
2023-01-26T23:55:56.438Z,1.44
2023-01-26T23:58:25.992Z,1.49
